Time;durP1;ratioP1;P1;durP2;ratioP2;P2;SDS_P1;SDS_P2;PMS_P1;PMS_P2;Temp;Humidity;BMP_temperature;BMP_pressure;BME280_temperature;BME280_humidity;BME280_pressure;Samples;Min_cycle;Max_cycle;Signal;HPM_P1;HPM_P2
2021/11/29 00:02:21;;;;;;;14.27;4.68;;;4.20;99.90;;;;;;5046533;28;20386;-72
2021/11/29 00:04:46;;;;;;;10.05;5.00;;;4.10;99.90;;;;;;5050336;28;20017;-72
2021/11/29 00:07:13;;;;;;;12.32;5.22;;;4.10;99.90;;;;;;5053382;28;20481;-72
2021/11/29 00:09:38;;;;;;;6.47;4.45;;;4.10;99.90;;;;;;5045348;28;20424;-72
2021/11/29 00:12:05;;;;;;;13.93;4.90;;;4.00;99.90;;;;;;5051839;28;20048;-72
2021/11/29 00:14:31;;;;;;;6.70;3.85;;;4.10;99.90;;;;;;5051747;28;20032;-72
2021/11/29 00:16:56;;;;;;;11.05;4.15;;;4.10;99.90;;;;;;5048075;28;20072;-72
2021/11/29 00:19:22;;;;;;;6.00;3.80;;;4.10;99.90;;;;;;5051107;28;20404;-72
2021/11/29 00:21:48;;;;;;;11.65;3.80;;;4.00;99.90;;;;;;5052657;28;20029;-72
2021/11/29 00:24:14;;;;;;;7.63;3.22;;;4.00;99.90;;;;;;5046630;28;20044;-72
2021/11/29 00:26:40;;;;;;;6.47;3.50;;;4.00;99.90;;;;;;5047834;28;20036;-72
2021/11/29 00:29:05;;;;;;;7.82;3.95;;;4.10;99.90;;;;;;5052901;28;20385;-72
2021/11/29 00:31:31;;;;;;;9.30;3.28;;;4.10;99.90;;;;;;5047003;28;20048;-72
2021/11/29 00:33:57;;;;;;;6.93;3.17;;;4.00;99.90;;;;;;5052510;28;20028;-73
2021/11/29 00:36:23;;;;;;;5.93;2.80;;;4.00;99.90;;;;;;5050568;28;20025;-72
2021/11/29 00:38:50;;;;;;;9.38;3.47;;;4.00;99.90;;;;;;5051948;28;20021;-72
2021/11/29 00:41:16;;;;;;;7.30;3.40;;;4.00;99.90;;;;;;5051501;28;20155;-72
2021/11/29 00:43:42;;;;;;;5.57;2.65;;;4.00;99.90;;;;;;5047328;28;20119;-72
2021/11/29 00:46:08;;;;;;;5.95;3.33;;;4.10;99.90;;;;;;5052670;28;20025;-72
2021/11/29 00:48:34;;;;;;;6.60;3.10;;;4.00;99.90;;;;;;5050317;28;20025;-72
2021/11/29 00:51:00;;;;;;;9.52;4.72;;;4.00;99.90;;;;;;5050968;28;20100;-72
2021/11/29 00:53:26;;;;;;;7.57;3.28;;;4.00;99.90;;;;;;5052315;28;20497;-72
2021/11/29 00:55:52;;;;;;;6.18;2.70;;;4.00;99.90;;;;;;5052204;28;20029;-72
2021/11/29 00:58:18;;;;;;;8.18;3.35;;;4.00;99.90;;;;;;5050585;28;20566;-72
2021/11/29 01:00:44;;;;;;;8.48;3.00;;;3.90;99.90;;;;;;5048968;28;20025;-72
2021/11/29 01:03:10;;;;;;;15.30;3.28;;;3.90;99.90;;;;;;5051683;28;20025;-72
2021/11/29 01:05:35;;;;;;;7.57;2.60;;;3.90;99.90;;;;;;5041000;28;20021;-72
2021/11/29 01:08:01;;;;;;;3.03;2.30;;;4.00;99.90;;;;;;5051819;28;20057;-71
2021/11/29 01:10:28;;;;;;;3.13;2.67;;;4.00;99.90;;;;;;5052305;28;20464;-72
2021/11/29 01:12:54;;;;;;;7.60;2.95;;;4.00;99.90;;;;;;5048182;28;20033;-72
2021/11/29 01:15:24;;;;;;;3.10;2.65;;;3.90;99.90;;;;;;5052697;28;20067;-72
2021/11/29 01:17:50;;;;;;;8.85;3.05;;;3.90;99.90;;;;;;5046733;28;20026;-72
2021/11/29 01:20:16;;;;;;;4.43;2.85;;;3.90;99.90;;;;;;5045580;28;20033;-72
2021/11/29 01:22:43;;;;;;;7.00;2.97;;;3.80;99.90;;;;;;5051687;28;20028;-72
2021/11/29 01:25:11;;;;;;;3.67;2.08;;;3.90;99.90;;;;;;5051654;28;20025;-72
2021/11/29 01:27:37;;;;;;;8.15;2.60;;;3.80;99.90;;;;;;5050736;28;20082;-72
2021/11/29 01:30:05;;;;;;;7.55;2.50;;;3.80;99.90;;;;;;5052007;28;20059;-72
2021/11/29 01:32:31;;;;;;;6.45;2.55;;;3.80;99.90;;;;;;5052049;28;20029;-72
2021/11/29 01:34:56;;;;;;;5.40;2.38;;;3.70;99.90;;;;;;5040460;28;20131;-72
2021/11/29 01:37:22;;;;;;;6.00;2.55;;;3.70;99.90;;;;;;5044189;28;20032;-72
2021/11/29 01:39:48;;;;;;;3.58;2.55;;;3.70;99.90;;;;;;5046297;28;20118;-72
2021/11/29 01:42:13;;;;;;;5.70;2.35;;;3.70;99.90;;;;;;5046325;28;20033;-72
2021/11/29 01:44:39;;;;;;;5.32;2.47;;;3.70;99.90;;;;;;5041392;28;20151;-72
2021/11/29 01:47:05;;;;;;;4.57;2.70;;;3.70;99.90;;;;;;5045656;28;20027;-72
2021/11/29 01:49:32;;;;;;;5.68;3.15;;;3.70;99.90;;;;;;5046153;28;20024;-72
2021/11/29 01:51:58;;;;;;;10.80;2.70;;;3.70;99.90;;;;;;5047626;28;20033;-72
2021/11/29 01:54:25;;;;;;;5.70;2.67;;;3.70;99.90;;;;;;5045376;28;20090;-72
2021/11/29 01:56:51;;;;;;;8.45;2.97;;;3.60;99.90;;;;;;5048526;28;20026;-72
2021/11/29 01:59:17;;;;;;;6.72;3.20;;;3.60;99.90;;;;;;5048242;28;20025;-72
2021/11/29 02:01:42;;;;;;;5.65;2.95;;;3.70;99.90;;;;;;5047623;28;20075;-72
2021/11/29 02:04:11;;;;;;;2.88;2.60;;;3.60;99.90;;;;;;5045966;28;20052;-72
2021/11/29 02:06:39;;;;;;;6.45;3.45;;;3.70;99.90;;;;;;5047698;28;20025;-72
2021/11/29 02:09:06;;;;;;;9.15;3.33;;;3.70;99.90;;;;;;5047676;28;20025;-72
2021/11/29 02:11:33;;;;;;;8.93;3.45;;;3.60;99.90;;;;;;5043364;28;20045;-72
2021/11/29 02:14:00;;;;;;;6.10;3.63;;;3.60;99.90;;;;;;5046372;28;20022;-72
2021/11/29 02:16:28;;;;;;;3.92;3.08;;;3.60;99.90;;;;;;5050683;28;20028;-72
2021/11/29 02:18:54;;;;;;;5.93;3.45;;;3.70;99.90;;;;;;5055842;28;20017;-72
2021/11/29 02:21:23;;;;;;;7.60;3.70;;;3.70;99.90;;;;;;5055043;28;20473;-72
2021/11/29 02:23:56;;;;;;;5.85;3.55;;;3.60;99.90;;;;;;5049623;28;20029;-72
2021/11/29 02:26:26;;;;;;;6.35;3.70;;;3.60;99.90;;;;;;5050348;28;20537;-72
2021/11/29 02:28:56;;;;;;;9.73;3.88;;;3.50;99.90;;;;;;5045973;28;20021;-72
2021/11/29 02:31:26;;;;;;;6.95;3.88;;;3.60;99.90;;;;;;5055223;28;20086;-72
2021/11/29 02:33:51;;;;;;;7.60;4.40;;;3.50;99.90;;;;;;5045172;28;20110;-72
2021/11/29 02:36:17;;;;;;;8.63;4.28;;;3.60;99.90;;;;;;5045306;28;20551;-72
2021/11/29 02:38:43;;;;;;;8.45;4.50;;;3.60;99.90;;;;;;5052448;28;20025;-72
2021/11/29 02:41:09;;;;;;;4.72;4.22;;;3.60;99.90;;;;;;5055351;28;20066;-72
2021/11/29 02:43:36;;;;;;;5.40;4.05;;;3.60;99.90;;;;;;5052747;28;20032;-72
2021/11/29 02:46:02;;;;;;;7.95;4.65;;;3.50;99.90;;;;;;5054865;28;20025;-72
2021/11/29 02:48:48;;;;;;;10.23;4.75;;;3.50;99.90;;;;;;5054146;28;20074;-72
2021/11/29 02:51:40;;;;;;;7.97;4.72;;;3.50;99.90;;;;;;5038934;28;20021;-72
2021/11/29 02:54:11;;;;;;;6.97;5.35;;;3.60;99.90;;;;;;5046802;28;20025;-72
2021/11/29 02:56:40;;;;;;;9.07;5.18;;;3.60;99.90;;;;;;5051266;28;20022;-72
2021/11/29 02:59:15;;;;;;;7.85;5.60;;;3.60;99.90;;;;;;5038769;28;20021;-72
2021/11/29 03:01:42;;;;;;;8.10;4.72;;;3.60;99.90;;;;;;5055162;28;20104;-72
2021/11/29 03:04:08;;;;;;;10.82;4.95;;;3.60;99.90;;;;;;5054252;28;20086;-72
2021/11/29 03:06:34;;;;;;;7.97;5.20;;;3.60;99.90;;;;;;5054843;28;20021;-72
2021/11/29 03:09:01;;;;;;;9.75;5.30;;;3.60;99.90;;;;;;5053558;28;20092;-72
2021/11/29 03:11:28;;;;;;;8.65;5.45;;;3.60;99.90;;;;;;5054209;28;20100;-72
2021/11/29 03:13:55;;;;;;;11.32;5.63;;;3.60;99.90;;;;;;5054196;28;20108;-72
2021/11/29 03:16:21;;;;;;;10.13;4.70;;;3.50;99.90;;;;;;5053613;28;20464;-72
2021/11/29 03:18:46;;;;;;;9.77;5.25;;;3.50;99.90;;;;;;5054719;28;20106;-72
2021/11/29 03:21:16;;;;;;;9.27;5.82;;;3.50;99.90;;;;;;5047184;28;20021;-72
2021/11/29 03:23:43;;;;;;;9.25;5.93;;;3.50;99.90;;;;;;5053042;28;20425;-72
2021/11/29 03:26:14;;;;;;;15.05;6.88;;;3.60;99.90;;;;;;5051884;28;20021;-72
2021/11/29 03:28:41;;;;;;;10.25;6.90;;;3.50;99.90;;;;;;5054370;28;20025;-72
2021/11/29 03:31:08;;;;;;;8.07;6.40;;;3.50;99.90;;;;;;5053936;28;20591;-72
2021/11/29 03:33:35;;;;;;;9.00;5.90;;;3.50;99.90;;;;;;5054047;28;20020;-72
2021/11/29 03:36:02;;;;;;;12.82;6.35;;;3.50;99.90;;;;;;5053988;28;20031;-72
2021/11/29 03:38:28;;;;;;;12.40;6.47;;;3.50;99.90;;;;;;5049238;28;20477;-72
2021/11/29 03:40:54;;;;;;;9.45;6.07;;;3.50;99.90;;;;;;5053092;28;20036;-72
2021/11/29 03:43:20;;;;;;;7.78;5.72;;;3.50;99.90;;;;;;5053550;28;20025;-72
2021/11/29 03:45:46;;;;;;;8.95;6.50;;;3.50;99.90;;;;;;5051055;28;20382;-71
2021/11/29 03:48:11;;;;;;;7.95;5.82;;;3.50;99.90;;;;;;5053293;28;20063;-72
2021/11/29 03:50:37;;;;;;;9.45;6.13;;;3.40;99.90;;;;;;5051072;28;20036;-72
2021/11/29 03:53:03;;;;;;;9.52;6.10;;;3.40;99.90;;;;;;5047200;28;20063;-72
2021/11/29 03:55:29;;;;;;;11.73;6.88;;;3.40;99.90;;;;;;5054113;28;20029;-72
2021/11/29 03:57:54;;;;;;;9.95;6.55;;;3.40;99.90;;;;;;5053920;28;20033;-72
2021/11/29 04:00:21;;;;;;;7.20;5.75;;;3.40;99.90;;;;;;5053455;28;20481;-72
2021/11/29 04:02:46;;;;;;;9.95;6.30;;;3.40;99.90;;;;;;5052223;28;20423;-71
2021/11/29 04:05:12;;;;;;;9.60;5.50;;;3.40;99.90;;;;;;5053337;28;20021;-72
2021/11/29 04:07:38;;;;;;;11.90;6.78;;;3.40;99.90;;;;;;5042529;28;20017;-72
2021/11/29 04:10:05;;;;;;;11.57;6.25;;;3.50;99.90;;;;;;5053857;28;20025;-71
2021/11/29 04:12:30;;;;;;;7.53;5.35;;;3.40;99.90;;;;;;5053333;28;20163;-72
2021/11/29 04:14:56;;;;;;;8.07;5.88;;;3.40;99.90;;;;;;5046571;28;20084;-72
2021/11/29 04:17:22;;;;;;;8.00;5.60;;;3.40;99.90;;;;;;5053509;28;20013;-71
2021/11/29 04:19:48;;;;;;;6.93;5.32;;;3.40;99.90;;;;;;5050023;28;20025;-72
2021/11/29 04:22:14;;;;;;;8.90;5.90;;;3.30;99.90;;;;;;5053226;28;20033;-71
2021/11/29 04:24:42;;;;;;;9.13;5.70;;;3.30;99.90;;;;;;5052708;28;20656;-72
2021/11/29 04:27:09;;;;;;;8.10;5.40;;;3.30;99.90;;;;;;5053140;28;20071;-72
2021/11/29 04:29:40;;;;;;;8.43;6.40;;;3.30;99.90;;;;;;5042678;28;20033;-71
2021/11/29 04:32:06;;;;;;;6.70;5.30;;;3.30;99.90;;;;;;5052633;28;20103;-72
2021/11/29 04:34:32;;;;;;;9.13;4.45;;;3.30;99.90;;;;;;5051773;28;20029;-71
2021/11/29 04:36:58;;;;;;;6.22;4.70;;;3.20;99.90;;;;;;5052647;28;20025;-71
2021/11/29 04:39:24;;;;;;;6.82;5.00;;;3.20;99.90;;;;;;5052578;28;20087;-71
2021/11/29 04:41:50;;;;;;;7.63;5.63;;;3.20;99.90;;;;;;5052484;28;20346;-71
2021/11/29 04:44:16;;;;;;;5.05;4.28;;;3.20;99.90;;;;;;5048272;28;20032;-72
2021/11/29 04:46:42;;;;;;;5.72;4.85;;;3.30;99.90;;;;;;5049370;28;20021;-72
2021/11/29 04:49:08;;;;;;;8.32;4.97;;;3.30;99.90;;;;;;5052363;28;20029;-72
2021/11/29 04:51:34;;;;;;;8.60;5.65;;;3.20;99.90;;;;;;5052983;28;20021;-72
2021/11/29 04:54:00;;;;;;;7.05;5.20;;;3.20;99.90;;;;;;5051138;28;20113;-72
2021/11/29 04:56:26;;;;;;;5.18;4.68;;;3.20;99.90;;;;;;5048034;28;20025;-72
2021/11/29 04:58:51;;;;;;;5.97;5.15;;;3.20;99.90;;;;;;5043497;28;20035;-72
2021/11/29 05:01:17;;;;;;;9.52;4.97;;;3.20;99.90;;;;;;5042452;28;20021;-72
2021/11/29 05:03:43;;;;;;;6.43;4.25;;;3.30;99.90;;;;;;5041997;28;20029;-72
2021/11/29 05:06:09;;;;;;;8.07;5.05;;;3.30;99.90;;;;;;5041813;28;20029;-72
2021/11/29 05:08:35;;;;;;;7.07;5.10;;;3.30;99.90;;;;;;5041883;28;20017;-72
2021/11/29 05:11:01;;;;;;;6.93;5.38;;;3.30;99.90;;;;;;5041329;28;20017;-71
2021/11/29 05:13:28;;;;;;;8.45;4.75;;;3.20;99.90;;;;;;5043034;28;20033;-72
2021/11/29 05:15:54;;;;;;;5.68;4.68;;;3.30;99.90;;;;;;5041159;28;20025;-72
2021/11/29 05:18:20;;;;;;;4.65;3.97;;;3.30;99.90;;;;;;5042011;28;20029;-72
2021/11/29 05:20:46;;;;;;;7.18;3.88;;;3.30;99.90;;;;;;5046439;28;20070;-71
2021/11/29 05:23:12;;;;;;;5.65;4.30;;;3.20;99.90;;;;;;5051034;28;20028;-71
2021/11/29 05:25:38;;;;;;;4.60;4.13;;;3.20;99.90;;;;;;5049568;28;20025;-71
2021/11/29 05:28:05;;;;;;;5.35;4.57;;;3.20;99.90;;;;;;5051294;28;20033;-72
2021/11/29 05:30:30;;;;;;;3.83;3.42;;;3.20;99.90;;;;;;5052016;28;20496;-71
2021/11/29 05:32:57;;;;;;;4.90;3.83;;;3.20;99.90;;;;;;5051629;28;20037;-71
2021/11/29 05:35:23;;;;;;;6.55;4.18;;;3.20;99.90;;;;;;5052947;28;20029;-71
2021/11/29 05:37:49;;;;;;;4.78;3.60;;;3.20;99.90;;;;;;5048304;28;20029;-71
2021/11/29 05:40:14;;;;;;;5.85;4.40;;;3.20;99.90;;;;;;5042621;28;20033;-71
2021/11/29 05:42:40;;;;;;;7.63;4.80;;;3.20;99.90;;;;;;5040113;28;20458;-72
2021/11/29 05:45:08;;;;;;;4.90;3.50;;;3.20;99.90;;;;;;5042154;28;20017;-71
2021/11/29 05:47:34;;;;;;;6.30;4.32;;;3.30;99.90;;;;;;5041608;28;20056;-72
2021/11/29 05:50:01;;;;;;;3.92;3.50;;;3.20;99.90;;;;;;5041057;28;20112;-71
2021/11/29 05:52:26;;;;;;;5.80;4.03;;;3.30;99.90;;;;;;5041922;28;20043;-72
2021/11/29 05:54:52;;;;;;;6.25;3.88;;;3.30;99.90;;;;;;5040167;28;20025;-72
2021/11/29 05:57:18;;;;;;;4.43;3.65;;;3.40;99.90;;;;;;5042040;28;20029;-72
2021/11/29 05:59:44;;;;;;;7.35;4.63;;;3.40;99.90;;;;;;5038997;28;20505;-71
2021/11/29 06:02:10;;;;;;;6.53;5.07;;;3.40;99.90;;;;;;5043363;28;20028;-72
2021/11/29 06:04:36;;;;;;;7.40;4.65;;;3.40;99.90;;;;;;5039712;28;20093;-72
2021/11/29 06:07:02;;;;;;;7.13;4.70;;;3.40;99.90;;;;;;5038473;28;20037;-72
2021/11/29 06:09:27;;;;;;;7.85;4.95;;;3.40;99.90;;;;;;5042226;28;20013;-71
2021/11/29 06:11:53;;;;;;;7.25;4.60;;;3.40;99.90;;;;;;5040498;28;20493;-72
2021/11/29 06:14:19;;;;;;;6.82;5.07;;;3.50;99.90;;;;;;5040515;28;20021;-72
2021/11/29 06:16:45;;;;;;;11.85;5.55;;;3.50;99.90;;;;;;5042104;28;20358;-72
2021/11/29 06:19:11;;;;;;;8.32;4.93;;;3.50;99.90;;;;;;5040559;28;20100;-72
2021/11/29 06:21:37;;;;;;;7.20;5.30;;;3.50;99.90;;;;;;5043687;28;20033;-72
2021/11/29 06:24:03;;;;;;;7.97;5.55;;;3.50;99.90;;;;;;5040554;28;20033;-72
2021/11/29 06:26:28;;;;;;;9.23;5.50;;;3.50;99.90;;;;;;5042140;28;20376;-72
2021/11/29 06:28:54;;;;;;;9.60;6.03;;;3.50;99.90;;;;;;5040938;28;20076;-71
2021/11/29 06:31:20;;;;;;;10.93;5.90;;;3.50;99.90;;;;;;5039979;28;20112;-72
2021/11/29 06:33:45;;;;;;;13.77;6.53;;;3.50;99.90;;;;;;5042764;28;20362;-71
2021/11/29 06:36:12;;;;;;;11.82;6.57;;;3.60;99.90;;;;;;5044002;28;20027;-72
2021/11/29 06:38:38;;;;;;;9.90;6.95;;;3.60;99.90;;;;;;5044795;28;20025;-72
2021/11/29 06:41:04;;;;;;;13.73;8.50;;;3.60;99.90;;;;;;5044524;28;20024;-72
2021/11/29 06:43:30;;;;;;;13.95;9.32;;;3.60;99.90;;;;;;5042884;28;20549;-71
2021/11/29 06:45:56;;;;;;;20.70;10.55;;;3.40;99.90;;;;;;5044089;28;20029;-72
2021/11/29 06:48:22;;;;;;;19.40;11.73;;;3.50;99.90;;;;;;5044848;28;20030;-72
2021/11/29 06:50:49;;;;;;;21.00;11.63;;;3.50;99.90;;;;;;5042885;28;20017;-71
2021/11/29 06:53:17;;;;;;;24.30;13.15;;;3.50;99.90;;;;;;5043012;28;20040;-71
2021/11/29 06:55:46;;;;;;;22.20;12.38;;;3.50;99.90;;;;;;5043976;28;20021;-71
2021/11/29 06:58:11;;;;;;;27.58;14.05;;;3.50;99.90;;;;;;5044073;28;20032;-71
2021/11/29 07:00:37;;;;;;;27.42;14.68;;;3.60;99.90;;;;;;5044805;28;20021;-71
2021/11/29 07:03:03;;;;;;;25.73;13.45;;;3.50;99.90;;;;;;5043538;28;20132;-71
2021/11/29 07:05:29;;;;;;;27.80;13.80;;;3.50;99.90;;;;;;5040482;28;20029;-71
2021/11/29 07:07:56;;;;;;;20.55;12.40;;;3.50;99.90;;;;;;5043681;28;20553;-71
2021/11/29 07:10:24;;;;;;;25.60;14.07;;;3.50;99.90;;;;;;5041958;28;20023;-71
2021/11/29 07:12:52;;;;;;;21.50;13.40;;;3.40;99.90;;;;;;5043375;28;20127;-71
2021/11/29 07:15:19;;;;;;;24.02;13.27;;;3.40;99.90;;;;;;5043116;28;20106;-72
2021/11/29 07:17:46;;;;;;;27.73;16.08;;;3.40;99.90;;;;;;5043292;28;20124;-72
2021/11/29 07:20:12;;;;;;;25.98;14.70;;;3.40;99.90;;;;;;5045527;28;20017;-71
2021/11/29 07:22:37;;;;;;;23.45;12.90;;;3.40;99.90;;;;;;5042618;28;20028;-71
2021/11/29 07:25:04;;;;;;;21.50;12.20;;;3.40;99.90;;;;;;5043022;28;20544;-71
2021/11/29 07:27:32;;;;;;;19.77;11.68;;;3.40;99.90;;;;;;5042653;28;20018;-71
2021/11/29 07:29:59;;;;;;;20.65;11.95;;;3.40;99.90;;;;;;5043855;28;20027;-72
2021/11/29 07:32:25;;;;;;;24.90;12.65;;;3.50;99.90;;;;;;5043848;28;20037;-72
2021/11/29 07:34:52;;;;;;;20.23;11.07;;;3.50;99.90;;;;;;5042105;28;20013;-72
2021/11/29 07:37:19;;;;;;;17.65;11.02;;;3.50;99.90;;;;;;5042322;28;20535;-72
2021/11/29 07:39:46;;;;;;;19.38;11.45;;;3.60;99.90;;;;;;5043912;28;20022;-72
2021/11/29 07:42:13;;;;;;;24.60;11.18;;;3.50;99.90;;;;;;5041744;28;20040;-72
2021/11/29 07:44:39;;;;;;;23.38;10.88;;;3.50;99.90;;;;;;5040521;28;20013;-72
2021/11/29 07:47:06;;;;;;;21.25;11.13;;;3.50;99.90;;;;;;5042550;28;20091;-72
2021/11/29 07:49:32;;;;;;;20.42;11.40;;;3.60;99.90;;;;;;5042264;28;20432;-72
2021/11/29 07:51:58;;;;;;;19.08;9.98;;;3.60;99.90;;;;;;5043196;28;20025;-72
2021/11/29 07:54:24;;;;;;;20.13;11.65;;;3.60;99.90;;;;;;5042216;28;20116;-71
2021/11/29 07:56:50;;;;;;;18.83;10.70;;;3.60;99.90;;;;;;5040883;28;20103;-72
2021/11/29 07:59:16;;;;;;;19.20;10.50;;;3.60;99.90;;;;;;5042022;28;20025;-72
2021/11/29 08:01:42;;;;;;;15.25;10.05;;;3.70;99.90;;;;;;5042929;28;20037;-72
2021/11/29 08:04:07;;;;;;;17.95;10.23;;;3.70;99.90;;;;;;5043270;28;20028;-72
2021/11/29 08:06:33;;;;;;;23.73;9.82;;;3.70;99.90;;;;;;5042064;28;20030;-72
2021/11/29 08:08:59;;;;;;;18.17;10.55;;;3.70;99.90;;;;;;5043931;28;20016;-72
2021/11/29 08:11:25;;;;;;;22.65;10.68;;;3.70;99.90;;;;;;5041736;28;20411;-72
2021/11/29 08:13:51;;;;;;;17.00;10.70;;;3.80;99.90;;;;;;5042483;28;20036;-72
2021/11/29 08:16:17;;;;;;;17.02;9.70;;;3.90;99.90;;;;;;5041248;28;20025;-73
2021/11/29 08:18:42;;;;;;;20.45;10.05;;;3.90;99.90;;;;;;5044728;28;20029;-72
2021/11/29 08:21:08;;;;;;;24.65;11.48;;;3.90;99.90;;;;;;5045668;28;20028;-73
2021/11/29 08:23:34;;;;;;;14.05;8.45;;;3.90;99.90;;;;;;5044670;28;20021;-73
2021/11/29 08:26:01;;;;;;;17.85;8.20;;;4.00;99.90;;;;;;5043565;28;20025;-73
2021/11/29 08:28:27;;;;;;;15.10;8.10;;;4.00;99.90;;;;;;5044746;28;20017;-73
2021/11/29 08:30:52;;;;;;;11.73;6.95;;;3.90;99.90;;;;;;5042686;28;20466;-73
2021/11/29 08:33:18;;;;;;;13.38;7.68;;;4.00;99.90;;;;;;5039423;28;20040;-72
2021/11/29 08:35:46;;;;;;;13.27;6.85;;;4.00;99.90;;;;;;5044773;28;20020;-73
2021/11/29 08:38:15;;;;;;;12.10;6.50;;;4.00;99.90;;;;;;5044128;28;20021;-73
2021/11/29 08:40:42;;;;;;;15.98;6.75;;;4.10;99.90;;;;;;5041218;28;20036;-73
2021/11/29 08:43:11;;;;;;;16.42;6.88;;;4.10;99.90;;;;;;5040559;28;20026;-73
2021/11/29 08:45:38;;;;;;;12.63;6.82;;;4.10;99.90;;;;;;5041277;28;20025;-73
2021/11/29 08:48:06;;;;;;;15.18;6.60;;;4.10;99.90;;;;;;5042557;28;20021;-72
2021/11/29 08:50:33;;;;;;;12.95;6.88;;;4.10;99.90;;;;;;5041774;28;20052;-72
2021/11/29 08:53:02;;;;;;;15.52;6.18;;;4.20;99.90;;;;;;5041438;28;20031;-72
2021/11/29 08:55:28;;;;;;;13.90;6.32;;;4.10;99.90;;;;;;5040166;28;20116;-72
2021/11/29 08:57:55;;;;;;;9.75;6.05;;;4.20;99.90;;;;;;5044341;28;20418;-72
2021/11/29 09:00:21;;;;;;;11.35;6.43;;;4.30;99.90;;;;;;5043018;28;20108;-72
2021/11/29 09:02:47;;;;;;;10.35;5.88;;;4.30;99.90;;;;;;5042601;28;20116;-72
2021/11/29 09:05:15;;;;;;;10.10;5.43;;;4.30;99.90;;;;;;5049211;28;20025;-73
2021/11/29 09:07:41;;;;;;;7.72;5.22;;;4.30;99.90;;;;;;5051753;28;20056;-73
2021/11/29 09:10:08;;;;;;;10.75;5.85;;;4.30;99.90;;;;;;5044045;28;20053;-73
2021/11/29 09:12:36;;;;;;;9.57;5.18;;;4.30;99.90;;;;;;5041779;28;20034;-73
2021/11/29 09:15:04;;;;;;;10.85;5.55;;;4.30;99.90;;;;;;5043244;28;20021;-73
2021/11/29 09:17:29;;;;;;;10.82;5.35;;;4.30;99.90;;;;;;5041713;28;20018;-73
2021/11/29 09:19:55;;;;;;;13.48;5.55;;;4.40;99.90;;;;;;5045390;28;20396;-72
2021/11/29 09:22:21;;;;;;;15.50;6.22;;;4.40;99.90;;;;;;5045889;28;20036;-74
2021/11/29 09:24:46;;;;;;;12.15;6.53;;;4.40;99.90;;;;;;5052054;28;20059;-74
2021/11/29 09:27:12;;;;;;;16.88;6.82;;;4.40;99.90;;;;;;5051476;28;20386;-73
2021/11/29 09:29:37;;;;;;;11.85;6.00;;;4.40;99.90;;;;;;5051335;28;20028;-73
2021/11/29 09:32:06;;;;;;;12.07;5.90;;;4.40;99.90;;;;;;5034314;28;20040;-73
2021/11/29 09:34:32;;;;;;;10.82;5.00;;;4.40;99.90;;;;;;5032301;28;20037;-72
2021/11/29 09:36:58;;;;;;;13.23;5.72;;;4.40;99.90;;;;;;5032416;28;20097;-73
2021/11/29 09:39:23;;;;;;;10.52;5.53;;;4.50;99.90;;;;;;5032284;28;20091;-73
2021/11/29 09:41:49;;;;;;;10.05;5.85;;;4.40;99.90;;;;;;5032446;28;20053;-74
2021/11/29 09:44:15;;;;;;;12.05;6.03;;;4.40;99.90;;;;;;5032468;28;20448;-72
2021/11/29 09:46:41;;;;;;;8.95;6.10;;;4.40;99.90;;;;;;5033648;28;20029;-72
2021/11/29 09:49:08;;;;;;;12.50;6.93;;;4.50;99.90;;;;;;5044122;28;20463;-74
2021/11/29 09:51:36;;;;;;;13.63;6.72;;;4.40;99.90;;;;;;5051261;28;20029;-73
2021/11/29 09:54:10;;;;;;;10.43;6.10;;;4.40;99.90;;;;;;5051675;28;20362;-73
2021/11/29 09:56:37;;;;;;;19.08;6.60;;;4.50;99.90;;;;;;5052508;28;20033;-72
2021/11/29 09:59:04;;;;;;;18.27;7.40;;;4.50;99.90;;;;;;5051891;28;20056;-72
2021/11/29 10:01:30;;;;;;;17.35;7.40;;;4.60;99.90;;;;;;5045318;28;20022;-72
2021/11/29 10:03:56;;;;;;;20.88;8.43;;;4.50;99.90;;;;;;5029156;28;20026;-72
2021/11/29 10:06:22;;;;;;;22.77;9.05;;;4.60;99.90;;;;;;5029824;28;20601;-72
2021/11/29 10:08:49;;;;;;;26.30;9.20;;;4.70;99.90;;;;;;5049093;28;20461;-73
2021/11/29 10:11:17;;;;;;;23.10;9.05;;;4.70;99.90;;;;;;5054617;28;20500;-72
2021/11/29 10:13:49;;;;;;;30.17;8.80;;;4.70;99.90;;;;;;5055151;28;20069;-72
2021/11/29 10:16:39;;;;;;;25.65;10.13;;;4.80;99.90;;;;;;5056156;28;20032;-72
2021/11/29 10:19:28;;;;;;;32.35;9.50;;;4.90;99.90;;;;;;5055927;28;20473;-72
2021/11/29 10:22:11;;;;;;;34.97;13.82;;;5.00;99.90;;;;;;5037807;28;20052;-73
2021/11/29 10:24:37;;;;;;;37.33;12.70;;;5.00;99.90;;;;;;5034027;28;20505;-72
2021/11/29 10:27:03;;;;;;;38.63;13.27;;;5.00;99.90;;;;;;5036517;28;20157;-72
2021/11/29 10:29:28;;;;;;;41.65;13.50;;;5.10;99.90;;;;;;5035048;28;20021;-73
2021/11/29 10:31:56;;;;;;;45.95;14.25;;;5.00;99.90;;;;;;5044165;28;20037;-73
2021/11/29 10:34:31;;;;;;;45.03;15.40;;;5.10;99.90;;;;;;5054966;28;20013;-73
2021/11/29 10:37:00;;;;;;;43.97;14.60;;;5.10;99.90;;;;;;5055486;28;20111;-73
2021/11/29 10:39:29;;;;;;;47.38;13.23;;;5.00;99.90;;;;;;5055802;28;20056;-73
2021/11/29 10:41:58;;;;;;;44.72;12.50;;;5.10;99.90;;;;;;5050185;28;20029;-73
2021/11/29 10:44:27;;;;;;;34.53;10.90;;;5.10;99.90;;;;;;5039662;28;20021;-73
2021/11/29 10:46:56;;;;;;;28.42;10.43;;;5.10;99.90;;;;;;5040678;28;20034;-73
2021/11/29 10:49:27;;;;;;;30.77;10.63;;;5.20;99.90;;;;;;5039755;28;20061;-73
2021/11/29 10:51:56;;;;;;;37.92;10.40;;;5.20;99.90;;;;;;5038010;28;20033;-73
2021/11/29 10:54:25;;;;;;;28.52;10.93;;;5.20;99.90;;;;;;5046827;28;20460;-73
2021/11/29 10:56:51;;;;;;;35.40;9.20;;;5.20;99.90;;;;;;5043949;28;20086;-73
2021/11/29 10:59:20;;;;;;;28.83;9.93;;;5.30;99.90;;;;;;5041313;28;20127;-73
2021/11/29 11:01:50;;;;;;;33.17;9.55;;;5.30;99.90;;;;;;5042483;28;20388;-73
2021/11/29 11:04:20;;;;;;;26.90;8.65;;;5.30;99.90;;;;;;5045899;28;20168;-72
2021/11/29 11:07:04;;;;;;;28.98;9.32;;;5.30;99.90;;;;;;5040451;28;20033;-73
2021/11/29 11:09:33;;;;;;;31.33;8.00;;;5.40;99.90;;;;;;5043993;28;20120;-71
2021/11/29 11:12:02;;;;;;;25.90;7.13;;;5.40;99.90;;;;;;5046130;28;20021;-71
2021/11/29 11:14:35;;;;;;;24.25;7.75;;;5.40;99.90;;;;;;5036807;28;20404;-71
2021/11/29 11:17:06;;;;;;;27.60;8.00;;;5.40;99.90;;;;;;5043022;28;20481;-71
2021/11/29 11:19:35;;;;;;;27.60;9.15;;;5.50;99.90;;;;;;5043330;28;20021;-71
2021/11/29 11:22:24;;;;;;;30.02;8.00;;;5.50;99.90;;;;;;5049061;28;20021;-71
2021/11/29 11:24:57;;;;;;;31.67;8.25;;;5.60;99.90;;;;;;5052972;28;20040;-71
2021/11/29 11:27:25;;;;;;;21.63;8.68;;;5.70;99.90;;;;;;5052103;28;20071;-71
2021/11/29 11:29:57;;;;;;;23.67;8.63;;;5.70;99.90;;;;;;5054259;28;20033;-71
2021/11/29 11:32:24;;;;;;;27.85;8.35;;;5.80;99.90;;;;;;5045307;28;20051;-71
2021/11/29 11:34:59;;;;;;;28.83;8.63;;;5.80;99.90;;;;;;5034317;28;20026;-71
2021/11/29 11:37:32;;;;;;;31.48;7.97;;;5.80;99.90;;;;;;5045301;28;20028;-71
2021/11/29 11:39:59;;;;;;;23.95;8.25;;;5.90;99.90;;;;;;5042839;28;20732;-71
2021/11/29 11:42:25;;;;;;;20.67;7.20;;;5.90;99.90;;;;;;5043586;28;20473;-71
2021/11/29 11:44:52;;;;;;;27.05;7.10;;;5.90;99.90;;;;;;5043405;28;20028;-71
2021/11/29 11:47:19;;;;;;;19.00;6.80;;;5.90;99.90;;;;;;5041579;28;20021;-71
2021/11/29 11:49:47;;;;;;;18.23;6.28;;;5.90;99.90;;;;;;5043218;28;20021;-72
2021/11/29 11:52:16;;;;;;;15.65;5.93;;;5.80;99.90;;;;;;5045898;28;20037;-72
2021/11/29 11:54:43;;;;;;;21.65;6.10;;;5.90;99.90;;;;;;5066344;28;20052;-72
2021/11/29 11:57:11;;;;;;;28.92;6.75;;;5.90;99.90;;;;;;5054036;28;20025;-72
2021/11/29 11:59:50;;;;;;;21.88;7.03;;;5.90;99.90;;;;;;5054224;28;20100;-71
2021/11/29 12:02:19;;;;;;;16.35;6.10;;;5.90;99.90;;;;;;5052481;28;20029;-71
2021/11/29 12:05:15;;;;;;;18.02;6.32;;;5.90;99.90;;;;;;5047266;28;20056;-71
2021/11/29 12:07:43;;;;;;;19.77;5.90;;;6.00;99.90;;;;;;5042768;28;20060;-71
2021/11/29 12:10:27;;;;;;;13.20;5.38;;;6.00;99.90;;;;;;5042216;28;20013;-71
2021/11/29 12:12:58;;;;;;;17.75;5.85;;;6.10;99.90;;;;;;5042353;28;20081;-71
2021/11/29 12:15:37;;;;;;;15.80;5.78;;;6.10;99.90;;;;;;5038945;28;20109;-71
2021/11/29 12:18:03;;;;;;;20.02;5.22;;;6.10;99.90;;;;;;5044953;28;20103;-71
2021/11/29 12:20:29;;;;;;;17.30;5.10;;;6.20;99.90;;;;;;5053364;28;20103;-71
2021/11/29 12:22:55;;;;;;;19.55;4.88;;;6.20;99.90;;;;;;5034790;28;20033;-71
2021/11/29 12:25:23;;;;;;;14.85;4.50;;;6.20;99.90;;;;;;5033646;28;20072;-71
2021/11/29 12:27:55;;;;;;;20.85;5.10;;;6.20;99.90;;;;;;5032137;28;20080;-71
2021/11/29 12:30:40;;;;;;;17.13;4.63;;;6.20;99.90;;;;;;5036277;28;20033;-72
2021/11/29 12:33:10;;;;;;;12.60;4.60;;;6.30;99.90;;;;;;5042714;28;20457;-71
2021/11/29 12:35:40;;;;;;;19.52;4.68;;;6.30;99.90;;;;;;5044396;28;20025;-71
2021/11/29 12:38:09;;;;;;;23.00;4.82;;;6.30;99.90;;;;;;5041416;28;20048;-71
2021/11/29 12:40:57;;;;;;;13.57;3.97;;;6.40;99.90;;;;;;5043604;28;20021;-71
2021/11/29 12:43:46;;;;;;;19.23;4.18;;;6.40;99.90;;;;;;5040550;28;20650;-72
2021/11/29 12:46:26;;;;;;;13.25;3.55;;;6.40;99.90;;;;;;5042537;28;20023;-72
2021/11/29 12:48:54;;;;;;;24.65;4.13;;;6.40;99.90;;;;;;5046597;28;20028;-71
2021/11/29 12:51:55;;;;;;;15.70;3.08;;;6.40;99.90;;;;;;5047735;28;20036;-71
2021/11/29 12:54:39;;;;;;;16.30;3.45;;;6.30;99.90;;;;;;5042401;28;20033;-71